Time;durP1;ratioP1;P1;durP2;ratioP2;P2;SDS_P1;SDS_P2;PMS_P1;PMS_P2;Temp;Humidity;BMP_temperature;BMP_pressure;BME280_temperature;BME280_humidity;BME280_pressure;Samples;Min_cycle;Max_cycle;Signal;HPM_P1;HPM_P2
2022/08/28 00:02:11;;;;;;;12.13;9.53;;;22.20;99.90;;;;;;5038320;28;20548;-69
2022/08/28 00:04:36;;;;;;;11.60;10.00;;;22.10;99.90;;;;;;5042768;28;20183;-69
2022/08/28 00:07:03;;;;;;;10.63;9.73;;;22.20;99.90;;;;;;5036719;28;20196;-70
2022/08/28 00:09:28;;;;;;;10.47;9.43;;;22.20;99.90;;;;;;5038289;28;20215;-69
2022/08/28 00:11:54;;;;;;;12.17;10.43;;;22.20;99.90;;;;;;5042166;28;20453;-70
2022/08/28 00:14:21;;;;;;;11.07;9.97;;;22.20;99.90;;;;;;5038896;28;20183;-69
2022/08/28 00:16:48;;;;;;;11.73;10.50;;;22.20;99.90;;;;;;5035749;28;20466;-69
2022/08/28 00:19:15;;;;;;;13.27;9.93;;;22.20;99.90;;;;;;5040601;28;21329;-69
2022/08/28 00:21:41;;;;;;;11.10;9.90;;;22.30;99.90;;;;;;5042830;28;20450;-68
2022/08/28 00:24:07;;;;;;;11.87;10.77;;;22.30;99.90;;;;;;5041572;28;20430;-69
2022/08/28 00:29:17;;;;;;;11.93;10.90;;;22.30;99.90;;;;;;5034673;28;20214;-69
2022/08/28 00:31:43;;;;;;;14.47;11.17;;;22.30;99.90;;;;;;5039414;28;20442;-69
2022/08/28 00:34:09;;;;;;;15.87;11.60;;;22.30;99.90;;;;;;5041141;28;20271;-69
2022/08/28 00:36:36;;;;;;;11.77;10.77;;;22.40;99.90;;;;;;5039880;28;20312;-69
2022/08/28 00:39:02;;;;;;;12.97;11.60;;;22.40;99.90;;;;;;5044662;28;20480;-69
2022/08/28 00:41:30;;;;;;;11.73;10.70;;;22.40;99.90;;;;;;5042084;28;20670;-69
2022/08/28 00:44:13;;;;;;;12.30;11.00;;;22.40;99.90;;;;;;5033735;28;20434;-69
2022/08/28 00:46:40;;;;;;;12.33;11.13;;;22.40;99.90;;;;;;5037655;28;21159;-69
2022/08/28 00:49:06;;;;;;;12.10;10.90;;;22.40;99.90;;;;;;5037856;28;20490;-69
2022/08/28 00:54:18;;;;;;;12.87;11.57;;;22.50;99.90;;;;;;5036367;28;20914;-69
2022/08/28 00:56:45;;;;;;;14.33;12.97;;;22.50;99.90;;;;;;5038450;28;20546;-69
2022/08/28 00:59:14;;;;;;;13.30;12.00;;;22.50;99.90;;;;;;5038194;28;20447;-69
2022/08/28 01:01:40;;;;;;;15.37;12.97;;;22.50;99.90;;;;;;5038591;28;21262;-69
2022/08/28 01:04:07;;;;;;;13.13;11.53;;;22.50;99.90;;;;;;5035518;28;20407;-69
2022/08/28 01:06:34;;;;;;;18.27;13.13;;;22.50;99.90;;;;;;5037546;28;20565;-69
2022/08/28 01:09:00;;;;;;;15.93;12.70;;;22.60;99.90;;;;;;5039487;28;20442;-69
2022/08/28 01:11:27;;;;;;;14.07;12.77;;;22.50;99.90;;;;;;5039744;28;20826;-69
2022/08/28 01:13:55;;;;;;;14.73;12.73;;;22.50;99.90;;;;;;5043536;28;20238;-68
2022/08/28 01:16:22;;;;;;;13.33;12.10;;;22.50;99.90;;;;;;5032264;28;20443;-69
2022/08/28 01:18:50;;;;;;;14.07;12.57;;;22.50;99.90;;;;;;5039418;28;20570;-69
2022/08/28 01:21:36;;;;;;;14.10;12.63;;;22.40;99.90;;;;;;5038640;28;20438;-69
2022/08/28 01:24:08;;;;;;;17.43;12.50;;;22.40;99.90;;;;;;5040342;28;20575;-68
2022/08/28 01:26:34;;;;;;;12.37;11.20;;;22.40;99.90;;;;;;5040240;28;20540;-71
2022/08/28 01:29:01;;;;;;;14.23;12.80;;;22.40;99.90;;;;;;5039362;28;20457;-68
2022/08/28 01:31:29;;;;;;;14.50;12.40;;;22.40;99.90;;;;;;5037569;28;20961;-70
2022/08/28 01:33:58;;;;;;;12.90;11.63;;;22.40;99.90;;;;;;5036267;28;20447;-70
2022/08/28 01:36:24;;;;;;;12.83;11.53;;;22.30;99.90;;;;;;5036071;28;20461;-70
2022/08/28 01:38:57;;;;;;;11.20;10.20;;;22.30;99.90;;;;;;5040658;28;20463;-70
2022/08/28 01:41:24;;;;;;;14.87;11.40;;;22.20;99.90;;;;;;5040416;28;20465;-70
2022/08/28 01:43:49;;;;;;;13.20;9.80;;;22.20;99.90;;;;;;5036421;28;20442;-69
2022/08/28 01:46:16;;;;;;;12.37;10.77;;;22.20;99.90;;;;;;5037804;28;20439;-70
2022/08/28 01:48:43;;;;;;;12.50;11.03;;;22.20;99.90;;;;;;5037762;28;20714;-71
2022/08/28 01:51:10;;;;;;;11.97;10.37;;;22.10;99.90;;;;;;5023461;28;20416;-70
2022/08/28 01:53:36;;;;;;;11.33;10.13;;;22.10;99.90;;;;;;5013681;28;20438;-70
2022/08/28 01:56:07;;;;;;;14.87;11.33;;;22.10;99.90;;;;;;5036032;28;20489;-70
2022/08/28 01:58:32;;;;;;;12.03;10.83;;;22.10;99.90;;;;;;5036579;28;20424;-70
2022/08/28 02:00:58;;;;;;;13.03;11.83;;;22.00;99.90;;;;;;5031149;28;20553;-71
2022/08/28 02:03:24;;;;;;;12.67;11.20;;;22.00;99.90;;;;;;5036969;28;20441;-70
2022/08/28 02:05:50;;;;;;;14.60;11.17;;;22.00;99.90;;;;;;5039765;28;20181;-70
2022/08/28 02:08:17;;;;;;;12.10;11.00;;;21.90;99.90;;;;;;5039797;28;20653;-68
2022/08/28 02:10:43;;;;;;;12.60;11.30;;;21.90;99.90;;;;;;5038377;28;20435;-68
2022/08/28 02:13:10;;;;;;;13.33;10.43;;;21.90;99.90;;;;;;5042499;28;20450;-70
2022/08/28 02:15:36;;;;;;;13.57;10.47;;;21.90;99.90;;;;;;5023373;28;20541;-70
2022/08/28 02:18:03;;;;;;;13.77;10.70;;;21.90;99.90;;;;;;5039188;28;21065;-69
2022/08/28 02:20:29;;;;;;;11.70;10.60;;;21.80;99.90;;;;;;5041776;28;21141;-69
2022/08/28 02:22:56;;;;;;;10.77;9.77;;;21.80;99.90;;;;;;5036725;28;20457;-70
2022/08/28 02:25:23;;;;;;;13.53;11.67;;;21.80;99.90;;;;;;5037523;28;20586;-69
2022/08/28 02:27:49;;;;;;;15.40;10.30;;;21.70;99.90;;;;;;5039052;28;20453;-69
2022/08/28 02:30:16;;;;;;;12.20;10.90;;;21.70;99.90;;;;;;5037264;28;20495;-69
2022/08/28 02:32:42;;;;;;;11.97;10.03;;;21.60;99.90;;;;;;5039803;28;20434;-69
2022/08/28 02:35:09;;;;;;;11.00;10.00;;;21.70;99.90;;;;;;5040075;28;20422;-69
2022/08/28 02:37:35;;;;;;;12.97;9.50;;;21.70;99.90;;;;;;5040474;28;20891;-69
2022/08/28 02:40:02;;;;;;;14.20;10.97;;;21.70;99.90;;;;;;5035650;28;20911;-70
2022/08/28 02:42:28;;;;;;;12.33;11.10;;;21.60;99.90;;;;;;5026477;28;21028;-69
2022/08/28 02:44:54;;;;;;;11.50;9.80;;;21.60;99.90;;;;;;5035934;28;20410;-69
2022/08/28 02:47:19;;;;;;;11.30;9.53;;;21.60;99.90;;;;;;5036485;28;20716;-69
2022/08/28 02:49:45;;;;;;;11.07;9.73;;;21.60;99.90;;;;;;5039547;28;20222;-69
2022/08/28 02:52:11;;;;;;;11.30;10.20;;;21.50;99.90;;;;;;5035781;28;20180;-69
2022/08/28 02:54:38;;;;;;;12.17;10.23;;;21.50;99.90;;;;;;5034554;28;20183;-68
2022/08/28 02:57:07;;;;;;;12.07;10.80;;;21.50;99.90;;;;;;5034195;28;20292;-69
2022/08/28 02:59:35;;;;;;;11.20;10.10;;;21.50;99.90;;;;;;5037262;28;20440;-69
2022/08/28 03:02:02;;;;;;;12.97;10.63;;;21.50;99.90;;;;;;5037097;28;20430;-69
2022/08/28 03:04:30;;;;;;;11.80;10.70;;;21.50;99.90;;;;;;5039403;28;20411;-68
2022/08/28 03:06:56;;;;;;;13.03;11.27;;;21.50;99.90;;;;;;5037791;28;20483;-68
2022/08/28 03:09:22;;;;;;;11.90;10.70;;;21.50;99.90;;;;;;5034705;28;20466;-70
2022/08/28 03:11:48;;;;;;;14.10;11.93;;;21.50;99.90;;;;;;5037772;28;20466;-70
2022/08/28 03:14:13;;;;;;;12.10;10.63;;;21.50;99.90;;;;;;5035498;28;20188;-69
2022/08/28 03:16:39;;;;;;;11.80;10.73;;;21.50;99.90;;;;;;5035742;28;20330;-70
2022/08/28 03:19:05;;;;;;;12.53;11.23;;;21.50;99.90;;;;;;5037192;28;20202;-70
2022/08/28 03:21:30;;;;;;;12.93;11.57;;;21.50;99.90;;;;;;5036468;28;20179;-70
2022/08/28 03:23:56;;;;;;;12.30;11.00;;;21.40;99.90;;;;;;5032918;28;20182;-69
2022/08/28 03:26:23;;;;;;;12.27;11.03;;;21.40;99.90;;;;;;5035298;28;20188;-70
2022/08/28 03:28:52;;;;;;;12.60;11.40;;;21.40;99.90;;;;;;5031144;28;20461;-68
2022/08/28 03:31:22;;;;;;;12.80;11.47;;;21.40;99.90;;;;;;5031274;28;20449;-68
2022/08/28 03:33:48;;;;;;;13.13;10.80;;;21.40;99.90;;;;;;5039758;28;20480;-69
2022/08/28 03:36:17;;;;;;;12.43;11.00;;;21.40;99.90;;;;;;5033883;28;20447;-68
2022/08/28 03:38:43;;;;;;;12.13;10.90;;;21.40;99.90;;;;;;5036184;28;20184;-69
2022/08/28 03:41:11;;;;;;;13.67;11.90;;;21.40;99.90;;;;;;5037645;28;20448;-69
2022/08/28 03:43:37;;;;;;;12.10;10.93;;;21.50;99.90;;;;;;5032386;28;20210;-69
2022/08/28 03:46:04;;;;;;;12.50;11.40;;;21.50;99.90;;;;;;5034664;28;20435;-69
2022/08/28 03:48:35;;;;;;;13.37;11.73;;;21.50;99.90;;;;;;5035550;28;20196;-69
2022/08/28 03:51:05;;;;;;;14.07;12.57;;;21.50;99.90;;;;;;5033749;28;20820;-69
2022/08/28 03:53:31;;;;;;;12.40;11.10;;;21.50;99.90;;;;;;5031641;28;20994;-69
2022/08/28 03:55:57;;;;;;;12.40;11.30;;;21.50;99.90;;;;;;5035430;28;20445;-69
2022/08/28 03:58:24;;;;;;;12.77;11.57;;;21.50;99.90;;;;;;5034020;28;20815;-69
2022/08/28 04:00:49;;;;;;;12.80;11.60;;;21.50;99.90;;;;;;5034075;28;20290;-69
2022/08/28 04:03:16;;;;;;;12.27;10.67;;;21.50;99.90;;;;;;5032678;28;20541;-69
2022/08/28 04:05:43;;;;;;;13.00;11.10;;;21.50;99.90;;;;;;5038519;28;20414;-69
2022/08/28 04:08:15;;;;;;;14.00;11.33;;;21.60;99.90;;;;;;5037100;28;20450;-69
2022/08/28 04:10:45;;;;;;;13.83;12.47;;;21.60;99.90;;;;;;5033532;28;20456;-69
2022/08/28 04:13:12;;;;;;;13.97;12.33;;;21.60;99.90;;;;;;5036641;28;20457;-68
2022/08/28 04:15:38;;;;;;;15.50;12.00;;;21.60;99.90;;;;;;5036007;28;20444;-68
2022/08/28 04:18:04;;;;;;;14.10;12.70;;;21.60;99.90;;;;;;5035275;28;20462;-68
2022/08/28 04:20:29;;;;;;;13.50;12.10;;;21.60;99.90;;;;;;5036473;28;20467;-69
2022/08/28 04:22:55;;;;;;;12.60;11.33;;;21.60;99.90;;;;;;5034976;28;20190;-69
2022/08/28 04:25:22;;;;;;;12.60;11.33;;;21.60;99.90;;;;;;5035651;28;20597;-69
2022/08/28 04:27:48;;;;;;;16.33;13.37;;;21.60;99.90;;;;;;5036124;28;20210;-68
2022/08/28 04:30:14;;;;;;;19.13;12.63;;;21.60;99.90;;;;;;5036355;28;20942;-68
2022/08/28 04:32:40;;;;;;;13.17;11.87;;;21.60;99.90;;;;;;5039913;28;20470;-69
2022/08/28 04:35:08;;;;;;;14.90;12.70;;;21.70;99.90;;;;;;5034541;28;20719;-69
2022/08/28 04:37:35;;;;;;;19.63;12.63;;;21.70;99.90;;;;;;5033372;28;20232;-69
2022/08/28 04:40:02;;;;;;;14.20;12.70;;;21.70;99.90;;;;;;5034286;28;20466;-68
2022/08/28 04:42:28;;;;;;;15.30;12.50;;;21.70;99.90;;;;;;5036016;28;20423;-68
2022/08/28 04:44:58;;;;;;;12.93;11.73;;;21.70;99.90;;;;;;5035884;28;20836;-68
2022/08/28 04:47:24;;;;;;;16.47;12.63;;;21.70;99.90;;;;;;5035971;28;20176;-69
2022/08/28 04:49:50;;;;;;;13.23;11.93;;;21.70;99.90;;;;;;5016610;28;20473;-68
2022/08/28 04:52:15;;;;;;;17.03;13.30;;;21.70;99.90;;;;;;5038938;28;21044;-69
2022/08/28 04:54:41;;;;;;;18.30;12.20;;;21.70;99.90;;;;;;5035932;28;20279;-69
2022/08/28 04:57:07;;;;;;;14.10;12.70;;;21.70;99.90;;;;;;5040423;28;20239;-69
2022/08/28 04:59:33;;;;;;;14.50;12.60;;;21.70;99.90;;;;;;5036744;28;20439;-69
2022/08/28 05:01:59;;;;;;;15.00;12.07;;;21.70;99.90;;;;;;5034885;28;20219;-69
2022/08/28 05:04:25;;;;;;;14.30;12.00;;;21.70;99.90;;;;;;5042719;28;20475;-69
2022/08/28 05:06:51;;;;;;;13.83;11.60;;;21.70;99.90;;;;;;5038985;28;20193;-69
2022/08/28 05:09:18;;;;;;;14.83;13.33;;;21.70;99.90;;;;;;5039071;28;20442;-68
2022/08/28 05:11:45;;;;;;;13.97;12.47;;;21.80;99.90;;;;;;5040110;28;20192;-68
2022/08/28 05:14:13;;;;;;;13.23;11.00;;;21.80;99.90;;;;;;5041685;28;20435;-69
2022/08/28 05:16:42;;;;;;;12.47;11.17;;;21.80;99.90;;;;;;5039692;28;20481;-68
2022/08/28 05:19:07;;;;;;;16.47;12.87;;;21.80;99.90;;;;;;5028184;28;20467;-68
2022/08/28 05:21:33;;;;;;;12.40;11.20;;;21.80;99.90;;;;;;5042043;28;20516;-69
2022/08/28 05:23:59;;;;;;;14.33;12.83;;;21.80;99.90;;;;;;5040885;28;20181;-69
2022/08/28 05:26:25;;;;;;;14.60;11.70;;;21.80;99.90;;;;;;5038838;28;20236;-69
2022/08/28 05:28:53;;;;;;;13.60;11.83;;;21.80;99.90;;;;;;5038099;28;20248;-69
2022/08/28 05:31:20;;;;;;;15.90;14.40;;;21.80;99.90;;;;;;5038919;28;20869;-69
2022/08/28 05:33:47;;;;;;;16.10;12.30;;;21.80;99.90;;;;;;5034811;28;20530;-69
2022/08/28 05:36:14;;;;;;;13.57;11.60;;;21.80;99.90;;;;;;5038934;28;20472;-68
2022/08/28 05:38:40;;;;;;;13.67;11.27;;;21.90;99.90;;;;;;5041468;28;20431;-69
2022/08/28 05:41:07;;;;;;;14.73;12.00;;;21.80;99.90;;;;;;5037671;28;20453;-69
2022/08/28 05:43:33;;;;;;;13.10;11.80;;;21.90;99.90;;;;;;5039949;28;20462;-69
2022/08/28 05:46:00;;;;;;;13.33;11.87;;;21.90;99.90;;;;;;5042638;28;20935;-69
2022/08/28 05:48:30;;;;;;;12.70;11.47;;;22.00;99.90;;;;;;5041175;28;20168;-69
2022/08/28 05:51:09;;;;;;;14.20;11.60;;;22.00;99.90;;;;;;5040707;28;20858;-68
2022/08/28 05:53:41;;;;;;;12.97;11.30;;;22.00;99.90;;;;;;5040931;28;21927;-69
2022/08/28 05:56:09;;;;;;;14.50;11.60;;;22.00;99.90;;;;;;5038286;28;20439;-68
2022/08/28 05:58:36;;;;;;;13.53;10.17;;;22.00;99.90;;;;;;5036870;28;20857;-68
2022/08/28 06:01:26;;;;;;;11.13;10.00;;;22.10;99.90;;;;;;5036859;28;20454;-68
2022/08/28 06:03:56;;;;;;;9.23;8.43;;;22.10;99.90;;;;;;5041160;28;20426;-69
2022/08/28 06:06:23;;;;;;;10.10;8.70;;;22.10;99.90;;;;;;5038101;28;20442;-68
2022/08/28 06:08:50;;;;;;;11.93;7.83;;;22.10;99.90;;;;;;5035778;28;20911;-68
2022/08/28 06:11:19;;;;;;;9.90;8.40;;;22.10;99.90;;;;;;5038376;28;20418;-68
2022/08/28 06:13:44;;;;;;;10.50;9.50;;;22.20;99.90;;;;;;5042451;28;20430;-68
2022/08/28 06:16:11;;;;;;;11.37;9.50;;;22.20;99.90;;;;;;5038108;28;20525;-70
2022/08/28 06:18:37;;;;;;;8.47;7.67;;;22.10;99.90;;;;;;5040537;28;20641;-69
2022/08/28 06:21:02;;;;;;;8.93;8.03;;;22.20;99.90;;;;;;5030281;28;20549;-69
2022/08/28 06:23:29;;;;;;;8.67;7.80;;;22.20;99.90;;;;;;5031407;28;20311;-69
2022/08/28 06:25:54;;;;;;;9.17;7.70;;;22.30;99.90;;;;;;5032513;28;20558;-70
2022/08/28 06:28:23;;;;;;;8.50;7.70;;;22.30;99.90;;;;;;5031042;28;20426;-70
2022/08/28 06:30:50;;;;;;;9.13;7.27;;;22.30;99.90;;;;;;5034611;28;20325;-69
2022/08/28 06:33:20;;;;;;;10.20;7.43;;;22.30;99.90;;;;;;5032285;28;20446;-69
2022/08/28 06:35:48;;;;;;;8.97;7.67;;;22.40;99.90;;;;;;5034578;28;20446;-69
2022/08/28 06:38:16;;;;;;;8.70;7.40;;;22.40;99.90;;;;;;5033052;28;20557;-69
2022/08/28 06:40:46;;;;;;;12.13;6.20;;;22.40;99.90;;;;;;5034052;28;20499;-68
2022/08/28 06:43:12;;;;;;;7.67;6.87;;;22.40;99.90;;;;;;5034507;28;20414;-69
2022/08/28 06:45:50;;;;;;;7.87;7.07;;;22.40;99.90;;;;;;5032222;28;20435;-69
2022/08/28 06:48:18;;;;;;;7.30;6.20;;;22.40;99.90;;;;;;5031507;28;20466;-69
2022/08/28 06:50:48;;;;;;;10.30;6.43;;;22.50;99.90;;;;;;5029086;28;20478;-69
2022/08/28 06:53:16;;;;;;;7.97;7.00;;;22.50;99.90;;;;;;5030734;28;20427;-70
2022/08/28 06:55:42;;;;;;;6.87;6.27;;;22.50;99.90;;;;;;5033438;28;20438;-70
2022/08/28 06:58:09;;;;;;;8.20;6.60;;;22.60;99.90;;;;;;5030914;28;20474;-71
2022/08/28 07:00:36;;;;;;;6.50;5.93;;;22.60;99.90;;;;;;5031237;28;20211;-70
2022/08/28 07:03:04;;;;;;;7.10;5.90;;;22.60;99.90;;;;;;5032046;28;20434;-69
2022/08/28 07:05:33;;;;;;;9.10;6.63;;;22.60;99.90;;;;;;5033483;28;20442;-68
2022/08/28 07:07:59;;;;;;;7.17;6.47;;;22.60;99.90;;;;;;5031978;28;20453;-68
2022/08/28 07:10:28;;;;;;;10.40;9.40;;;22.70;99.90;;;;;;5033542;28;20525;-68
2022/08/28 07:12:53;;;;;;;9.20;8.40;;;22.70;99.90;;;;;;5038932;28;20603;-71
2022/08/28 07:15:20;;;;;;;10.77;7.50;;;22.70;99.90;;;;;;5033306;28;20442;-70
2022/08/28 07:17:46;;;;;;;6.83;6.07;;;22.70;99.90;;;;;;5034157;28;20211;-70
2022/08/28 07:20:12;;;;;;;12.13;8.40;;;22.70;99.90;;;;;;5036177;28;20918;-70
2022/08/28 07:22:39;;;;;;;8.80;7.90;;;22.70;99.90;;;;;;5030761;28;20198;-70
2022/08/28 07:25:07;;;;;;;10.20;7.50;;;22.80;99.90;;;;;;5033357;28;20187;-70
2022/08/28 07:27:32;;;;;;;12.90;7.00;;;22.80;99.90;;;;;;5037063;28;20414;-70
2022/08/28 07:29:58;;;;;;;10.80;6.87;;;22.80;99.90;;;;;;5040520;28;20472;-70
2022/08/28 07:32:24;;;;;;;7.30;6.57;;;22.80;99.90;;;;;;5034662;28;20211;-70
2022/08/28 07:34:50;;;;;;;7.37;5.70;;;22.90;99.90;;;;;;5033242;28;20191;-70
2022/08/28 07:37:16;;;;;;;7.47;6.67;;;23.00;99.90;;;;;;5038750;28;21493;-70
2022/08/28 07:39:43;;;;;;;7.23;6.10;;;23.00;99.90;;;;;;5033388;28;20211;-70
2022/08/28 07:42:09;;;;;;;8.10;7.13;;;23.00;99.90;;;;;;5033870;28;20894;-70
2022/08/28 07:44:50;;;;;;;7.03;6.33;;;23.10;99.90;;;;;;5033539;28;20434;-69
2022/08/28 07:47:17;;;;;;;8.83;7.50;;;23.20;99.90;;;;;;5035147;28;20441;-69
2022/08/28 07:49:43;;;;;;;6.90;6.20;;;23.20;99.90;;;;;;5035648;28;20982;-69
2022/08/28 07:52:09;;;;;;;7.50;6.73;;;23.20;99.90;;;;;;5034249;28;20496;-69
2022/08/28 07:54:35;;;;;;;7.27;6.57;;;23.30;99.90;;;;;;5034448;28;20188;-69
2022/08/28 07:57:03;;;;;;;7.03;6.33;;;23.30;99.90;;;;;;5034619;28;20852;-69
2022/08/28 07:59:28;;;;;;;10.40;6.07;;;23.30;99.90;;;;;;5032563;28;20904;-69
2022/08/28 08:01:54;;;;;;;7.03;6.33;;;23.40;99.90;;;;;;5030914;28;20507;-68
2022/08/28 08:04:21;;;;;;;7.00;6.20;;;23.30;99.90;;;;;;5038305;28;20188;-69
2022/08/28 08:06:47;;;;;;;7.53;6.83;;;23.30;99.90;;;;;;5030652;28;20279;-68
2022/08/28 08:09:16;;;;;;;6.90;6.20;;;23.30;99.90;;;;;;5032167;28;20457;-68
2022/08/28 08:11:42;;;;;;;7.57;6.40;;;23.30;99.90;;;;;;5035489;28;20457;-69
2022/08/28 08:14:08;;;;;;;9.07;5.97;;;23.40;99.90;;;;;;5032197;28;20832;-68
2022/08/28 08:16:37;;;;;;;7.53;6.83;;;23.40;99.90;;;;;;5032165;28;20455;-71
2022/08/28 08:19:04;;;;;;;8.60;7.70;;;23.50;99.90;;;;;;5031846;28;20542;-70
2022/08/28 08:21:30;;;;;;;10.07;8.00;;;23.60;99.90;;;;;;5030314;28;20433;-70
2022/08/28 08:23:56;;;;;;;11.67;9.70;;;23.60;99.90;;;;;;5035008;28;20427;-71
2022/08/28 08:26:24;;;;;;;8.70;7.37;;;23.60;99.90;;;;;;5034902;28;20489;-68
2022/08/28 08:28:50;;;;;;;9.13;8.10;;;23.70;99.90;;;;;;5036329;28;20449;-70
2022/08/28 08:31:25;;;;;;;8.33;7.17;;;23.70;99.90;;;;;;5038409;28;20449;-68
2022/08/28 08:33:54;;;;;;;9.33;8.43;;;23.80;99.90;;;;;;5034805;28;20430;-70
2022/08/28 08:36:21;;;;;;;8.07;7.27;;;23.80;99.90;;;;;;5039624;28;20438;-70
2022/08/28 08:38:47;;;;;;;8.83;7.93;;;23.80;99.90;;;;;;5040358;28;20473;-71
2022/08/28 08:41:37;;;;;;;8.23;7.53;;;23.90;99.90;;;;;;5033889;28;22068;-70
2022/08/28 08:44:25;;;;;;;12.80;7.43;;;23.90;99.90;;;;;;5035688;28;20302;-71
2022/08/28 08:47:11;;;;;;;9.90;8.03;;;24.00;99.90;;;;;;5036686;28;20449;-69
2022/08/28 08:49:50;;;;;;;7.93;7.23;;;24.00;99.90;;;;;;5036529;28;20632;-70
2022/08/28 08:52:29;;;;;;;8.33;7.60;;;24.00;99.90;;;;;;5034256;28;20446;-71
2022/08/28 08:55:05;;;;;;;8.43;7.63;;;24.10;99.90;;;;;;5035955;28;20449;-70
2022/08/28 08:57:32;;;;;;;7.83;7.03;;;24.30;99.90;;;;;;5015809;28;20465;-70
2022/08/28 08:59:58;;;;;;;10.60;7.73;;;24.30;99.90;;;;;;5017592;28;20439;-70
2022/08/28 09:02:31;;;;;;;9.03;7.73;;;24.30;99.90;;;;;;5034472;28;20430;-69
2022/08/28 09:05:08;;;;;;;9.70;7.87;;;24.40;99.90;;;;;;5029663;28;20438;-69
2022/08/28 09:07:46;;;;;;;10.80;7.00;;;24.60;99.90;;;;;;5029887;28;20856;-70
2022/08/28 09:10:14;;;;;;;8.20;7.40;;;24.70;99.90;;;;;;5013757;28;20974;-70
2022/08/28 09:12:59;;;;;;;8.97;7.60;;;24.80;99.90;;;;;;5030899;28;20941;-70
2022/08/28 09:15:35;;;;;;;10.53;6.83;;;24.90;99.90;;;;;;5033504;28;20477;-71
2022/08/28 09:18:13;;;;;;;10.13;6.93;;;24.90;99.90;;;;;;5032532;28;20480;-71
2022/08/28 09:20:39;;;;;;;8.43;6.87;;;25.00;99.90;;;;;;5032056;28;21051;-71
2022/08/28 09:23:05;;;;;;;8.97;8.07;;;25.10;99.90;;;;;;5039546;28;20431;-69
2022/08/28 09:25:43;;;;;;;9.53;7.23;;;25.20;99.90;;;;;;5033296;28;21200;-69
2022/08/28 09:28:19;;;;;;;11.47;7.27;;;25.30;99.90;;;;;;5034371;28;20199;-70
2022/08/28 09:31:00;;;;;;;7.30;6.60;;;25.40;99.90;;;;;;5031850;28;20457;-70
2022/08/28 09:33:36;;;;;;;7.60;6.90;;;25.40;99.90;;;;;;5033521;28;21002;-69
2022/08/28 09:36:20;;;;;;;8.27;7.50;;;25.50;99.90;;;;;;5031518;28;20932;-70
2022/08/28 09:39:10;;;;;;;8.63;7.10;;;25.50;99.90;;;;;;5028523;28;20436;-69
2022/08/28 09:44:24;;;;;;;8.10;7.30;;;25.40;99.90;;;;;;5033388;28;20446;-71
2022/08/28 09:46:50;;;;;;;7.83;6.33;;;25.50;99.90;;;;;;5034619;28;20430;-70
2022/08/28 09:49:26;;;;;;;7.87;7.07;;;25.50;99.90;;;;;;5034315;28;20489;-70
2022/08/28 09:51:53;;;;;;;8.57;7.03;;;25.60;99.90;;;;;;5032405;28;21517;-70
2022/08/28 09:54:21;;;;;;;11.37;7.00;;;25.60;99.90;;;;;;5033506;28;20480;-70
2022/08/28 09:56:49;;;;;;;8.07;6.97;;;25.80;99.90;;;;;;5037221;28;20524;-70
2022/08/28 09:59:18;;;;;;;7.43;6.77;;;25.90;99.90;;;;;;5015670;28;21089;-70
2022/08/28 10:01:52;;;;;;;7.33;6.63;;;25.90;99.90;;;;;;5030763;28;20430;-70
2022/08/28 10:04:23;;;;;;;7.40;6.70;;;26.00;99.90;;;;;;5034203;28;20478;-70
2022/08/28 10:06:53;;;;;;;8.90;6.93;;;26.00;99.90;;;;;;5032235;28;20469;-70
2022/08/28 10:09:58;;;;;;;10.90;6.50;;;26.00;99.90;;;;;;5034551;28;21013;-69
2022/08/28 10:12:50;;;;;;;7.10;6.40;;;26.00;99.90;;;;;;5013625;28;20434;-69
2022/08/28 10:15:40;;;;;;;7.13;6.43;;;26.00;99.90;;;;;;5033408;28;20426;-69
2022/08/28 10:18:29;;;;;;;7.83;7.13;;;26.10;99.90;;;;;;5036191;28;20545;-69
2022/08/28 10:20:57;;;;;;;14.63;7.07;;;26.30;99.90;;;;;;5036496;28;20454;-69
2022/08/28 10:23:26;;;;;;;9.20;6.80;;;26.30;99.90;;;;;;5034608;28;20453;-69
2022/08/28 10:26:33;;;;;;;9.17;7.80;;;26.40;99.90;;;;;;5032837;28;20507;-68
2022/08/28 10:29:10;;;;;;;8.13;6.97;;;26.60;99.90;;;;;;4985002;28;20472;-70
2022/08/28 10:32:25;;;;;;;8.53;6.73;;;26.70;99.90;;;;;;5035788;28;20431;-70
2022/08/28 10:35:21;;;;;;;6.90;6.20;;;26.70;99.90;;;;;;5031378;28;20446;-70
2022/08/28 10:37:59;;;;;;;7.90;6.27;;;26.90;99.90;;;;;;5037991;28;21078;-69
2022/08/28 10:40:37;;;;;;;8.53;6.87;;;27.00;99.90;;;;;;5034441;28;20453;-69
2022/08/28 10:43:15;;;;;;;7.43;6.30;;;27.10;99.90;;;;;;5031706;28;20450;-70
2022/08/28 10:45:41;;;;;;;6.70;6.10;;;27.30;99.90;;;;;;5030995;28;21376;-68
2022/08/28 10:48:21;;;;;;;8.40;7.60;;;27.40;99.90;;;;;;5035590;28;20489;-67
2022/08/28 10:50:58;;;;;;;7.70;6.03;;;27.60;99.90;;;;;;5031159;28;20478;-71
2022/08/28 10:53:31;;;;;;;7.93;7.20;;;27.70;99.90;;;;;;5033530;28;20417;-70
2022/08/28 10:56:01;;;;;;;7.50;6.40;;;27.70;99.90;;;;;;5037243;28;20433;-69
2022/08/28 10:58:27;;;;;;;9.33;6.50;;;27.70;99.90;;;;;;5032961;28;20465;-70
2022/08/28 11:01:01;;;;;;;7.80;6.80;;;27.70;99.90;;;;;;5033773;28;20453;-71
2022/08/28 11:03:29;;;;;;;7.40;6.47;;;27.70;99.90;;;;;;5032179;28;20438;-70
2022/08/28 11:06:07;;;;;;;7.30;6.20;;;27.70;99.90;;;;;;5032117;28;20442;-69
2022/08/28 11:08:35;;;;;;;8.83;6.20;;;27.70;99.90;;;;;;5031170;28;20839;-70
2022/08/28 11:11:03;;;;;;;9.03;7.20;;;27.70;99.90;;;;;;5034055;28;20465;-70
2022/08/28 11:13:53;;;;;;;7.40;6.43;;;27.60;99.90;;;;;;5035551;28;20453;-70
2022/08/28 11:16:28;;;;;;;6.40;5.83;;;27.60;99.90;;;;;;5033998;28;20427;-69
2022/08/28 11:19:20;;;;;;;7.90;7.20;;;27.50;99.90;;;;;;5034742;28;20442;-68
2022/08/28 11:21:48;;;;;;;7.30;6.60;;;27.50;99.90;;;;;;5033382;28;20438;-70
2022/08/28 11:24:42;;;;;;;7.97;6.83;;;27.40;99.90;;;;;;5034323;28;20427;-68
2022/08/28 11:27:30;;;;;;;10.43;6.83;;;27.40;99.90;;;;;;5032511;28;20442;-68
2022/08/28 11:30:07;;;;;;;7.53;6.47;;;27.60;99.90;;;;;;5032654;28;20461;-71
2022/08/28 11:32:33;;;;;;;7.30;6.60;;;27.70;99.90;;;;;;5034207;28;20853;-69
2022/08/28 11:35:03;;;;;;;8.60;6.43;;;27.70;99.90;;;;;;5033027;28;20946;-70
2022/08/28 11:37:42;;;;;;;7.93;6.13;;;27.80;99.90;;;;;;5034762;28;20199;-70
2022/08/28 11:40:28;;;;;;;6.90;6.20;;;27.90;99.90;;;;;;5036390;28;20469;-70
2022/08/28 11:43:15;;;;;;;7.17;6.47;;;28.20;99.90;;;;;;5039047;28;20950;-72
2022/08/28 11:45:46;;;;;;;8.93;6.67;;;28.40;99.90;;;;;;5034373;28;20551;-69
2022/08/28 11:48:24;;;;;;;8.20;6.60;;;28.50;99.90;;;;;;5033264;28;20488;-69
2022/08/28 11:51:03;;;;;;;7.00;6.40;;;28.70;99.90;;;;;;5031713;28;20454;-68
2022/08/28 11:54:08;;;;;;;6.80;6.10;;;28.90;99.90;;;;;;5029056;28;20438;-68
2022/08/28 11:56:53;;;;;;;7.10;6.50;;;29.10;99.90;;;;;;5031798;28;20649;-68
2022/08/28 12:00:07;;;;;;;7.83;6.13;;;29.20;99.90;;;;;;5033672;28;20469;-68
2022/08/28 12:02:38;;;;;;;6.60;5.93;;;29.10;99.90;;;;;;5023863;28;20470;-68
2022/08/28 12:05:15;;;;;;;7.57;6.30;;;29.30;99.90;;;;;;5035948;28;20439;-69
2022/08/28 12:07:49;;;;;;;7.40;6.70;;;29.50;99.90;;;;;;5033871;28;20468;-68
2022/08/28 12:10:25;;;;;;;10.57;6.87;;;29.40;99.90;;;;;;5030604;28;20453;-68
2022/08/28 12:13:01;;;;;;;9.30;6.90;;;29.20;99.90;;;;;;5033187;28;20861;-68
2022/08/28 12:15:26;;;;;;;7.10;6.50;;;29.20;99.90;;;;;;5036983;28;20449;-68
2022/08/28 12:18:05;;;;;;;16.47;6.57;;;29.50;99.90;;;;;;5035684;28;20496;-68
2022/08/28 12:21:02;;;;;;;6.90;6.20;;;30.20;99.90;;;;;;5037883;28;20199;-69
2022/08/28 12:23:33;;;;;;;8.03;7.23;;;30.50;99.90;;;;;;5035186;28;20446;-68
2022/08/28 12:26:18;;;;;;;6.30;5.70;;;30.60;99.90;;;;;;5035963;28;21226;-68
2022/08/28 12:28:56;;;;;;;6.17;5.67;;;31.20;99.90;;;;;;5042715;28;20433;-68
2022/08/28 12:32:09;;;;;;;6.20;5.70;;;31.10;99.40;;;;;;5044853;28;20949;-68
2022/08/28 12:34:22;;;;;;;6.47;5.97;;;31.20;99.30;;;;;;5044480;28;20430;-68
2022/08/28 12:36:58;;;;;;;6.77;6.20;;;31.80;98.50;;;;;;5040060;28;20449;-68
2022/08/28 12:39:26;;;;;;;7.90;6.00;;;32.60;97.60;;;;;;5041295;28;20435;-68
2022/08/28 12:41:51;;;;;;;7.10;6.50;;;32.70;96.50;;;;;;5042718;28;20437;-69
2022/08/28 12:44:27;;;;;;;8.57;7.67;;;33.10;96.40;;;;;;5045107;28;20461;-68
2022/08/28 12:46:53;;;;;;;6.00;5.50;;;33.70;95.00;;;;;;5040228;28;20605;-68
2022/08/28 12:49:45;;;;;;;5.57;5.00;;;34.20;93.40;;;;;;5047478;28;20988;-67
2022/08/28 12:52:22;;;;;;;6.70;6.00;;;33.90;91.00;;;;;;5038962;28;20823;-67
2022/08/28 12:54:49;;;;;;;6.80;5.73;;;33.30;90.30;;;;;;5043535;28;20445;-68
2022/08/28 12:57:18;;;;;;;7.03;6.37;;;33.10;90.80;;;;;;5046526;28;20440;-68
2022/08/28 12:59:46;;;;;;;6.83;6.07;;;33.40;90.60;;;;;;5045135;28;20417;-68
2022/08/28 13:02:17;;;;;;;6.77;6.10;;;33.70;89.80;;;;;;5045621;28;20482;-68
2022/08/28 13:05:02;;;;;;;8.53;5.67;;;34.20;87.20;;;;;;5041521;28;20434;-68